createdAt,value
2022-09-05T00:01:47.921Z,15.07
2022-09-05T00:04:52.135Z,15.04
2022-09-05T00:08:00.409Z,15.00
2022-09-05T00:11:42.736Z,14.95
2022-09-05T00:15:16.460Z,14.85
2022-09-05T00:20:00.083Z,14.82
2022-09-05T00:24:30.499Z,14.77
2022-09-05T00:25:30.500Z,14.71
2022-09-05T00:28:26.287Z,14.63
2022-09-05T00:31:55.940Z,14.57
2022-09-05T00:34:51.069Z,14.52
2022-09-05T00:37:49.376Z,14.47
2022-09-05T00:40:44.217Z,14.44
2022-09-05T00:43:34.197Z,14.40
2022-09-05T00:46:32.023Z,14.39
2022-09-05T00:49:33.349Z,14.37
2022-09-05T00:52:43.149Z,14.36
2022-09-05T00:56:18.896Z,14.36
2022-09-05T00:59:42.016Z,14.38
2022-09-05T01:03:12.702Z,14.41
2022-09-05T01:06:09.064Z,14.42
2022-09-05T01:09:26.224Z,14.47
2022-09-05T01:12:43.887Z,14.52
2022-09-05T01:16:16.809Z,14.56
2022-09-05T01:19:08.713Z,14.60
2022-09-05T01:22:20.131Z,14.63
2022-09-05T01:25:47.126Z,14.63
2022-09-05T01:29:16.293Z,14.66
2022-09-05T01:32:37.958Z,14.62
2022-09-05T01:36:03.798Z,14.59
2022-09-05T01:40:12.410Z,14.60
2022-09-05T01:42:37.152Z,14.63
2022-09-05T01:45:44.970Z,14.64
2022-09-05T01:48:34.998Z,14.67
2022-09-05T01:51:47.352Z,14.71
2022-09-05T01:55:10.421Z,14.75
2022-09-05T01:58:22.125Z,14.78
2022-09-05T02:01:32.477Z,14.75
2022-09-05T02:04:30.836Z,14.73
2022-09-05T02:07:37.924Z,14.71
2022-09-05T02:10:54.034Z,14.66
2022-09-05T02:13:49.622Z,14.59
2022-09-05T02:16:46.684Z,14.55
2022-09-05T02:19:43.894Z,14.53
2022-09-05T02:22:44.792Z,14.49
2022-09-05T02:26:10.029Z,14.44
2022-09-05T02:29:07.420Z,14.40
2022-09-05T02:32:03.584Z,14.36
2022-09-05T02:35:15.477Z,14.34
2022-09-05T02:39:18.590Z,14.30
2022-09-05T02:45:11.158Z,14.15
2022-09-05T02:45:15.332Z,14.25
2022-09-05T02:48:32.314Z,14.10
2022-09-05T02:57:27.163Z,14.08
2022-09-05T02:57:32.669Z,14.02
2022-09-05T02:58:07.073Z,13.98
2022-09-05T03:01:10.266Z,13.95
2022-09-05T03:04:09.776Z,13.92
2022-09-05T03:07:20.468Z,13.90
2022-09-05T03:10:14.731Z,13.84
2022-09-05T03:13:12.257Z,13.83
2022-09-05T03:16:28.566Z,13.82
2022-09-05T03:19:51.537Z,13.76
2022-09-05T03:23:12.853Z,13.68
2022-09-05T03:26:08.914Z,13.62
2022-09-05T03:29:13.330Z,13.59
2022-09-05T03:32:27.376Z,13.55
2022-09-05T03:35:43.843Z,13.56
2022-09-05T03:38:50.333Z,13.63
2022-09-05T03:42:05.897Z,13.69
2022-09-05T03:45:36.961Z,13.73
2022-09-05T03:48:35.376Z,13.78
2022-09-05T03:57:06.281Z,13.85
2022-09-05T03:57:10.815Z,13.91
2022-09-05T03:58:31.817Z,13.98
2022-09-05T04:07:12.010Z,14.06
2022-09-05T04:08:13.865Z,14.09
2022-09-05T04:08:27.806Z,14.01
2022-09-05T04:11:07.483Z,13.94
2022-09-05T04:14:02.022Z,13.93
2022-09-05T04:16:50.505Z,13.92
2022-09-05T04:19:43.505Z,13.89
2022-09-05T04:23:01.084Z,13.83
2022-09-05T04:26:12.134Z,13.80
2022-09-05T04:29:15.122Z,13.82
2022-09-05T04:32:32.910Z,13.83
2022-09-05T04:35:31.011Z,13.81
2022-09-05T04:38:19.477Z,13.78
2022-09-05T04:41:39.291Z,13.74
2022-09-05T04:44:42.147Z,13.72
2022-09-05T04:47:38.350Z,13.71
2022-09-05T04:50:26.021Z,13.70
2022-09-05T04:54:02.219Z,13.72
2022-09-05T04:56:53.196Z,13.82
2022-09-05T05:02:59.671Z,13.89
2022-09-05T05:06:13.326Z,13.98
2022-09-05T05:06:38.094Z,14.01
2022-09-05T05:09:34.021Z,13.98
2022-09-05T05:17:59.128Z,13.97
2022-09-05T05:18:15.637Z,13.99
2022-09-05T05:19:42.003Z,14.01
2022-09-05T05:22:29.446Z,14.06
2022-09-05T05:25:15.242Z,14.17
2022-09-05T05:28:15.540Z,14.33
2022-09-05T05:31:31.714Z,14.49
2022-09-05T05:34:23.851Z,14.68
2022-09-05T05:37:53.446Z,14.89
2022-09-05T05:40:51.165Z,15.17
2022-09-05T05:43:46.269Z,15.42
2022-09-05T05:46:38.057Z,15.59
2022-09-05T05:49:52.739Z,15.71
2022-09-05T05:52:41.134Z,15.73
2022-09-05T05:55:53.099Z,15.80
2022-09-05T05:58:54.690Z,15.87
2022-09-05T06:01:56.003Z,15.99
2022-09-05T06:05:03.781Z,16.14
2022-09-05T06:10:52.564Z,16.27
2022-09-05T06:15:02.641Z,16.43
2022-09-05T06:15:25.392Z,16.53
2022-09-05T06:18:24.406Z,16.61
2022-09-05T06:22:06.057Z,16.82
2022-09-05T06:25:17.454Z,17.12
2022-09-05T06:28:19.308Z,17.28
2022-09-05T06:31:30.615Z,17.39
2022-09-05T06:34:57.056Z,17.44
2022-09-05T06:38:16.448Z,17.41
2022-09-05T06:41:40.169Z,17.37
2022-09-05T06:44:38.032Z,17.47
2022-09-05T06:47:34.138Z,17.56
2022-09-05T06:50:27.273Z,17.62
2022-09-05T06:53:35.686Z,17.64
2022-09-05T06:56:42.719Z,17.61
2022-09-05T07:00:17.644Z,17.63
2022-09-05T07:03:20.111Z,17.72
2022-09-05T07:07:00.910Z,17.77
2022-09-05T07:10:03.843Z,17.78
2022-09-05T07:13:25.261Z,17.77
2022-09-05T07:16:47.799Z,17.69
2022-09-05T07:19:54.818Z,17.65
2022-09-05T07:24:06.979Z,17.72
2022-09-05T07:26:49.695Z,17.84
2022-09-05T07:29:40.821Z,17.96
2022-09-05T07:32:45.651Z,18.08
2022-09-05T07:35:41.667Z,18.21
2022-09-05T07:38:38.245Z,18.26
2022-09-05T07:41:39.971Z,18.32
2022-09-05T07:44:39.336Z,18.38
2022-09-05T07:47:32.442Z,18.43
2022-09-05T07:54:59.138Z,18.56
2022-09-05T07:56:49.870Z,18.87
2022-09-05T08:00:25.843Z,19.38
2022-09-05T08:03:15.700Z,19.56
2022-09-05T08:06:06.581Z,19.79
2022-09-05T08:10:05.995Z,20.06
2022-09-05T08:12:28.537Z,20.35
2022-09-05T08:15:23.015Z,20.44
2022-09-05T08:18:31.265Z,20.39
2022-09-05T08:21:30.712Z,20.32
2022-09-05T08:24:24.049Z,20.36
2022-09-05T08:27:17.121Z,20.42
2022-09-05T08:30:25.154Z,20.44
2022-09-05T08:33:35.239Z,20.45
2022-09-05T08:36:37.277Z,20.48
2022-09-05T08:39:27.419Z,20.53
2022-09-05T08:42:29.625Z,20.63
2022-09-05T08:46:40.902Z,20.70
2022-09-05T08:48:50.015Z,20.84
2022-09-05T08:51:41.186Z,20.89
2022-09-05T08:55:09.505Z,20.77
2022-09-05T08:58:05.207Z,20.65
2022-09-05T09:01:03.042Z,20.62
2022-09-05T09:05:01.547Z,20.78
2022-09-05T09:07:50.751Z,20.86
2022-09-05T09:10:59.648Z,20.78
2022-09-05T09:14:12.213Z,20.67
2022-09-05T09:17:07.635Z,20.64
2022-09-05T09:20:17.647Z,20.58
2022-09-05T09:23:32.906Z,20.60
2022-09-05T09:26:28.320Z,20.67
2022-09-05T09:29:18.370Z,20.70
2022-09-05T09:32:08.138Z,20.69
2022-09-05T09:35:10.362Z,20.64
2022-09-05T09:38:08.201Z,20.57
2022-09-05T09:41:12.868Z,20.66
2022-09-05T09:44:43.616Z,20.70
2022-09-05T09:47:36.187Z,20.51
2022-09-05T09:50:59.240Z,20.40
2022-09-05T09:54:04.155Z,20.38
2022-09-05T09:57:23.868Z,20.40
2022-09-05T10:00:24.356Z,20.35
2022-09-05T10:10:04.376Z,20.29
2022-09-05T10:10:52.197Z,20.32
2022-09-05T10:11:05.227Z,20.54
2022-09-05T10:13:56.837Z,20.72
2022-09-05T10:17:22.947Z,20.76
2022-09-05T10:20:49.666Z,20.82
2022-09-05T10:24:38.797Z,21.00
2022-09-05T10:28:01.122Z,21.27
2022-09-05T10:32:39.071Z,21.41
2022-09-05T10:35:23.318Z,21.42
2022-09-05T10:37:55.016Z,21.53
2022-09-05T10:41:16.147Z,21.80
2022-09-05T10:44:01.534Z,22.02
2022-09-05T10:47:16.581Z,22.19
2022-09-05T10:50:25.570Z,22.39
2022-09-05T10:53:39.022Z,22.23
2022-09-05T10:56:31.791Z,21.84
2022-09-05T11:01:29.693Z,21.47
2022-09-05T11:02:57.831Z,21.19
2022-09-05T11:06:09.251Z,20.99
2022-09-05T11:08:59.009Z,20.80
2022-09-05T11:11:52.489Z,20.63
2022-09-05T11:14:54.129Z,20.51
2022-09-05T11:17:43.271Z,20.50
2022-09-05T11:20:46.699Z,20.50
2022-09-05T11:23:57.607Z,20.55
2022-09-05T11:27:23.861Z,20.65
2022-09-05T11:30:28.632Z,20.80
2022-09-05T11:39:53.053Z,21.42
2022-09-05T11:39:59.544Z,21.09
2022-09-05T11:40:34.257Z,21.74
2022-09-05T11:43:51.508Z,21.96
2022-09-05T11:47:29.895Z,22.17
2022-09-05T11:50:52.944Z,22.40
2022-09-05T11:53:46.830Z,22.63
2022-09-05T11:57:34.438Z,22.81
2022-09-05T12:00:40.667Z,22.88
2022-09-05T12:03:58.130Z,22.83
2022-09-05T12:07:31.587Z,22.95
2022-09-05T12:10:46.725Z,22.88
2022-09-05T12:13:52.453Z,22.58
2022-09-05T12:17:10.058Z,22.18
2022-09-05T12:20:16.791Z,21.85
2022-09-05T12:23:49.335Z,21.63
2022-09-05T12:27:40.467Z,21.43
2022-09-05T12:29:50.470Z,21.33
2022-09-05T12:33:58.050Z,21.29
2022-09-05T12:40:30.257Z,21.44
2022-09-05T12:41:36.422Z,21.67
2022-09-05T12:43:53.095Z,21.84
2022-09-05T12:46:26.387Z,22.04
2022-09-05T12:49:35.018Z,22.16
2022-09-05T12:52:38.339Z,22.18
2022-09-05T12:55:30.976Z,22.23
2022-09-05T13:03:02.202Z,22.19
2022-09-05T13:03:02.327Z,22.15
2022-09-05T13:05:02.821Z,22.19
2022-09-05T13:07:57.089Z,22.38
2022-09-05T13:14:46.108Z,22.49
2022-09-05T13:14:54.124Z,22.51
2022-09-05T13:17:31.531Z,22.59
2022-09-05T13:20:35.613Z,22.64
2022-09-05T13:23:42.024Z,22.63
2022-09-05T13:26:43.340Z,22.64
2022-09-05T13:31:13.770Z,22.72
2022-09-05T13:37:55.595Z,22.70
2022-09-05T13:38:16.419Z,22.70
2022-09-05T13:39:44.301Z,22.55
2022-09-05T13:42:46.586Z,22.43
2022-09-05T13:45:48.183Z,22.39
2022-09-05T13:52:05.325Z,22.33
2022-09-05T13:55:29.827Z,22.29
2022-09-05T13:58:54.426Z,22.20
2022-09-05T14:01:44.212Z,22.05
2022-09-05T14:05:19.587Z,21.90
2022-09-05T14:08:18.145Z,21.77
2022-09-05T14:11:18.535Z,21.81
2022-09-05T14:15:08.279Z,21.75
2022-09-05T14:18:03.142Z,21.73
2022-09-05T14:21:17.245Z,21.78
2022-09-05T14:24:14.860Z,21.77
2022-09-05T14:27:00.656Z,21.80
2022-09-05T14:29:41.857Z,21.89
2022-09-05T14:37:40.565Z,21.98
2022-09-05T14:37:46.008Z,22.08
2022-09-05T14:38:19.814Z,22.10
2022-09-05T14:41:13.432Z,22.14
2022-09-05T14:44:17.534Z,22.14
2022-09-05T14:47:02.462Z,22.22
2022-09-05T14:49:44.493Z,22.24
2022-09-05T14:52:29.079Z,22.24
2022-09-05T15:02:46.050Z,22.21
2022-09-05T15:02:47.947Z,22.15
2022-09-05T15:06:39.320Z,22.28
2022-09-05T15:12:12.628Z,22.21
2022-09-05T15:12:25.844Z,22.14
2022-09-05T15:15:00.795Z,22.09
2022-09-05T15:17:31.082Z,22.10
2022-09-05T15:20:08.414Z,22.03
2022-09-05T15:22:41.981Z,21.99
2022-09-05T15:25:17.772Z,22.03
2022-09-05T15:27:47.407Z,22.03
2022-09-05T15:30:35.224Z,22.00
2022-09-05T15:33:25.374Z,21.96
2022-09-05T15:35:55.708Z,21.94
2022-09-05T15:38:55.664Z,21.89
2022-09-05T15:41:25.062Z,21.86
2022-09-05T15:44:10.114Z,21.84
2022-09-05T15:46:46.464Z,21.81
2022-09-05T15:49:32.288Z,21.76
2022-09-05T15:52:05.278Z,21.69
2022-09-05T15:54:40.778Z,21.63
2022-09-05T15:57:14.488Z,21.58
2022-09-05T15:59:51.995Z,21.49
2022-09-05T16:02:28.508Z,21.45
2022-09-05T16:10:34.880Z,21.38
2022-09-05T16:10:39.977Z,21.30
2022-09-05T16:14:37.644Z,21.29
2022-09-05T16:23:11.452Z,21.29
2022-09-05T16:23:28.261Z,21.25
2022-09-05T16:23:40.466Z,21.19
2022-09-05T16:26:24.972Z,21.15
2022-09-05T16:29:00.596Z,21.14
2022-09-05T16:32:02.400Z,21.10
2022-09-05T16:35:09.482Z,21.07
2022-09-05T16:37:42.291Z,21.02
2022-09-05T16:40:34.936Z,20.95
2022-09-05T16:43:07.150Z,20.86
2022-09-05T16:46:06.552Z,20.78
2022-09-05T16:48:37.547Z,20.71
2022-09-05T16:51:35.330Z,20.65
2022-09-05T16:54:32.337Z,20.62
2022-09-05T16:57:09.145Z,20.59
2022-09-05T16:59:41.339Z,20.57
2022-09-05T17:02:31.224Z,20.53
2022-09-05T17:05:08.345Z,20.48
2022-09-05T17:07:48.480Z,20.46
2022-09-05T17:10:25.828Z,20.42
2022-09-05T17:12:55.341Z,20.40
2022-09-05T17:15:35.897Z,20.37
2022-09-05T17:18:19.519Z,20.31
2022-09-05T17:20:56.929Z,20.26
2022-09-05T17:29:21.396Z,20.21
2022-09-05T17:29:28.158Z,20.15
2022-09-05T17:31:23.784Z,20.09
2022-09-05T17:32:39.139Z,20.04
2022-09-05T17:35:21.944Z,19.98
2022-09-05T17:38:11.650Z,19.92
2022-09-05T17:40:50.522Z,19.85
2022-09-05T17:43:34.079Z,19.77
2022-09-05T17:46:22.994Z,19.70
2022-09-05T17:49:18.609Z,19.63
2022-09-05T17:52:02.344Z,19.56
2022-09-05T17:54:33.532Z,19.51
2022-09-05T17:57:28.929Z,19.46
2022-09-05T18:00:05.424Z,19.41
2022-09-05T18:02:54.679Z,19.35
2022-09-05T18:05:58.373Z,19.29
2022-09-05T18:08:45.735Z,19.22
2022-09-05T18:11:25.659Z,19.17
2022-09-05T18:14:01.600Z,19.13
2022-09-05T18:16:48.295Z,19.08
2022-09-05T18:19:57.717Z,19.04
2022-09-05T18:22:36.972Z,19.00
2022-09-05T18:25:30.756Z,18.93
2022-09-05T18:28:28.640Z,18.86
2022-09-05T18:31:41.497Z,18.76
2022-09-05T18:34:13.884Z,18.67
2022-09-05T18:36:43.193Z,18.58
2022-09-05T18:39:26.318Z,18.49
2022-09-05T18:42:34.507Z,18.40
2022-09-05T18:45:03.312Z,18.28
2022-09-05T18:47:53.133Z,18.16
2022-09-05T18:50:32.344Z,18.06
2022-09-05T18:53:05.683Z,17.98
2022-09-05T18:56:20.768Z,17.90
2022-09-05T18:59:09.590Z,17.83
2022-09-05T19:02:04.627Z,17.78
2022-09-05T19:04:44.932Z,17.73
2022-09-05T19:07:22.511Z,17.70
2022-09-05T19:10:34.917Z,17.68
2022-09-05T19:13:17.785Z,17.65
2022-09-05T19:16:18.256Z,17.63
2022-09-05T19:19:31.442Z,17.60
2022-09-05T19:22:52.592Z,17.55
2022-09-05T19:24:50.357Z,17.48
2022-09-05T19:29:50.215Z,17.42
2022-09-05T19:37:09.789Z,17.26
2022-09-05T19:37:09.979Z,17.33
2022-09-05T19:37:15.105Z,17.21
2022-09-05T19:42:52.641Z,17.16
2022-09-05T19:47:29.128Z,17.10
2022-09-05T19:47:37.190Z,17.06
2022-09-05T19:50:27.377Z,16.97
2022-09-05T19:53:06.804Z,16.92
2022-09-05T19:55:38.839Z,16.89
2022-09-05T19:58:20.076Z,16.87
2022-09-05T20:01:13.532Z,16.83
2022-09-05T20:03:43.862Z,16.77
2022-09-05T20:06:31.129Z,16.70
2022-09-05T20:09:18.864Z,16.64
2022-09-05T20:11:57.041Z,16.55
2022-09-05T20:14:29.081Z,16.47
2022-09-05T20:17:18.924Z,16.40
2022-09-05T20:19:47.698Z,16.35
2022-09-05T20:22:48.234Z,16.30
2022-09-05T20:25:36.053Z,16.26
2022-09-05T20:28:10.260Z,16.24
2022-09-05T20:30:44.960Z,16.23
2022-09-05T20:33:40.225Z,16.21
2022-09-05T20:41:13.995Z,16.20
2022-09-05T20:43:35.355Z,16.18
2022-09-05T20:43:36.698Z,16.17
2022-09-05T20:44:51.772Z,16.16
2022-09-05T20:54:04.368Z,16.14
2022-09-05T20:54:23.017Z,16.12
2022-09-05T20:54:25.555Z,16.08
2022-09-05T20:56:22.704Z,16.04
2022-09-05T20:58:51.785Z,16.01
2022-09-05T21:01:22.986Z,15.96
2022-09-05T21:03:57.830Z,15.89
2022-09-05T21:06:33.993Z,15.86
2022-09-05T21:09:24.325Z,15.83
2022-09-05T21:11:59.083Z,15.79
2022-09-05T21:14:29.138Z,15.75
2022-09-05T21:17:01.572Z,15.71
2022-09-05T21:19:53.450Z,15.67
2022-09-05T21:22:39.381Z,15.64
2022-09-05T21:25:42.201Z,15.61
2022-09-05T21:28:37.324Z,15.58
2022-09-05T21:31:12.214Z,15.54
2022-09-05T21:33:45.413Z,15.51
2022-09-05T21:36:15.620Z,15.49
2022-09-05T21:38:44.051Z,15.48
2022-09-05T21:41:16.421Z,15.46
2022-09-05T21:47:37.648Z,15.44
2022-09-05T21:47:39.617Z,15.41
2022-09-05T21:49:22.716Z,15.39
2022-09-05T21:51:51.118Z,15.36
2022-09-05T21:59:14.898Z,15.34
2022-09-05T21:59:30.621Z,15.33
2022-09-05T22:00:20.773Z,15.32
2022-09-05T22:02:49.629Z,15.33
2022-09-05T22:05:17.800Z,15.33
2022-09-05T22:07:46.264Z,15.33
2022-09-05T22:10:15.017Z,15.34
2022-09-05T22:12:42.988Z,15.35
2022-09-05T22:15:27.328Z,15.36
2022-09-05T22:18:16.875Z,15.34
2022-09-05T22:21:02.950Z,15.32
2022-09-05T22:23:44.449Z,15.30
2022-09-05T22:26:14.571Z,15.24
2022-09-05T22:28:48.946Z,15.18
2022-09-05T22:31:19.174Z,15.12
2022-09-05T22:33:50.826Z,15.07
2022-09-05T22:36:19.436Z,15.06
2022-09-05T22:38:47.779Z,15.06
2022-09-05T22:41:16.082Z,15.05
2022-09-05T22:43:46.430Z,15.04
2022-09-05T22:46:14.667Z,15.01
2022-09-05T22:48:42.662Z,14.96
2022-09-05T22:51:10.846Z,14.94
2022-09-05T22:53:39.010Z,14.93
2022-09-05T22:56:08.736Z,14.94
2022-09-05T22:58:43.037Z,14.93
2022-09-05T23:01:11.803Z,14.93
2022-09-05T23:03:39.748Z,14.95
2022-09-05T23:06:09.807Z,14.94
2022-09-05T23:08:37.850Z,14.90
2022-09-05T23:11:14.180Z,14.88
2022-09-05T23:13:42.548Z,14.86
2022-09-05T23:16:11.148Z,14.81
2022-09-05T23:18:40.125Z,14.73
2022-09-05T23:21:11.776Z,14.64
2022-09-05T23:23:41.354Z,14.58
2022-09-05T23:26:12.269Z,14.53
2022-09-05T23:28:43.282Z,14.47
2022-09-05T23:31:12.816Z,14.42
2022-09-05T23:33:45.116Z,14.36
2022-09-05T23:36:14.032Z,14.30
2022-09-05T23:38:42.899Z,14.24
2022-09-05T23:41:13.654Z,14.18
2022-09-05T23:43:42.696Z,14.13
2022-09-05T23:46:10.729Z,14.09
2022-09-05T23:48:38.622Z,14.07
2022-09-05T23:51:12.384Z,14.04
2022-09-05T23:53:41.163Z,13.98
2022-09-05T23:56:11.047Z,13.92
2022-09-05T23:58:39.093Z,13.87
